createdAt,value
2019-04-07T00:00:09.139Z,37.07
2019-04-07T00:02:40.797Z,40.17
2019-04-07T00:05:14.432Z,37.60
2019-04-07T00:07:45.476Z,38.10
2019-04-07T00:10:18.097Z,37.80
2019-04-07T00:12:49.866Z,38.17
2019-04-07T00:15:20.850Z,39.37
2019-04-07T00:17:52.399Z,41.80
2019-04-07T00:20:23.646Z,38.50
2019-04-07T00:22:57.362Z,37.53
2019-04-07T00:25:28.719Z,37.83
2019-04-07T00:27:59.709Z,37.17
2019-04-07T00:30:31.707Z,39.13
2019-04-07T00:33:03.600Z,40.27
2019-04-07T00:35:35.398Z,38.30
2019-04-07T00:38:06.407Z,36.70
2019-04-07T00:40:38.362Z,39.63
2019-04-07T00:43:13.609Z,38.60
2019-04-07T00:45:45.917Z,38.70
2019-04-07T00:48:17.015Z,38.87
2019-04-07T00:50:48.722Z,38.27
2019-04-07T00:53:20.041Z,43.77
2019-04-07T00:55:52.929Z,40.37
2019-04-07T00:58:25.756Z,38.33
2019-04-07T01:00:58.813Z,37.10
2019-04-07T01:03:30.223Z,39.30
2019-04-07T01:06:01.220Z,37.80
2019-04-07T01:08:32.585Z,39.67
2019-04-07T01:11:04.710Z,39.37
2019-04-07T01:13:36.306Z,39.57
2019-04-07T01:16:06.820Z,39.17
2019-04-07T01:18:37.996Z,40.37
2019-04-07T01:21:09.465Z,45.37
2019-04-07T01:23:40.433Z,38.80
2019-04-07T01:26:11.222Z,40.03
2019-04-07T01:28:44.073Z,38.47
2019-04-07T01:31:14.698Z,40.97
2019-04-07T01:33:45.240Z,44.13
2019-04-07T01:36:16.195Z,40.97
2019-04-07T01:38:46.677Z,45.37
2019-04-07T01:41:35.998Z,40.60
2019-04-07T01:44:15.512Z,40.87
2019-04-07T01:47:04.692Z,40.87
2019-04-07T01:50:00.568Z,44.23
2019-04-07T01:52:39.639Z,38.80
2019-04-07T01:55:29.904Z,44.10
2019-04-07T01:58:20.081Z,40.97
2019-04-07T02:01:14.132Z,42.23
2019-04-07T02:04:14.582Z,38.17
2019-04-07T02:07:10.709Z,40.97
2019-04-07T02:10:02.461Z,40.30
2019-04-07T02:12:51.974Z,41.07
2019-04-07T02:15:44.673Z,40.93
2019-04-07T02:18:43.262Z,41.67
2019-04-07T02:21:36.118Z,40.57
2019-04-07T02:24:30.887Z,38.23
2019-04-07T02:27:16.422Z,37.93
2019-04-07T02:30:16.170Z,37.63
2019-04-07T02:33:08.474Z,35.67
2019-04-07T02:35:46.692Z,38.33
2019-04-07T02:38:40.660Z,38.90
2019-04-07T02:41:36.873Z,37.97
2019-04-07T02:44:27.493Z,38.97
2019-04-07T02:47:18.146Z,37.10
2019-04-07T02:49:57.321Z,36.77
2019-04-07T02:52:55.937Z,35.57
2019-04-07T02:55:53.646Z,39.07
2019-04-07T02:58:38.468Z,39.13
2019-04-07T03:01:18.030Z,37.90
2019-04-07T03:04:24.448Z,38.87
2019-04-07T03:07:14.889Z,39.20
2019-04-07T03:10:07.671Z,37.93
2019-04-07T03:13:17.168Z,37.00
2019-04-07T03:16:19.244Z,39.03
2019-04-07T03:18:58.519Z,38.40
2019-04-07T03:21:44.563Z,36.93
2019-04-07T03:24:50.510Z,35.27
2019-04-07T03:27:42.859Z,34.10
2019-04-07T03:30:33.736Z,33.80
2019-04-07T03:33:37.171Z,38.23
2019-04-07T03:36:22.770Z,38.47
2019-04-07T03:38:58.157Z,35.23
2019-04-07T03:41:59.389Z,38.17
2019-04-07T03:44:53.261Z,38.03
2019-04-07T03:47:30.917Z,37.63
2019-04-07T03:50:19.145Z,40.30
2019-04-07T03:53:08.228Z,39.27
2019-04-07T03:56:01.841Z,39.60
2019-04-07T03:59:08.830Z,38.90
2019-04-07T04:01:59.212Z,39.70
2019-04-07T04:04:47.148Z,39.63
2019-04-07T04:07:31.586Z,41.93
2019-04-07T04:10:14.040Z,39.97
2019-04-07T04:13:23.090Z,36.77
2019-04-07T04:16:01.261Z,40.37
2019-04-07T04:18:32.395Z,42.13
2019-04-07T04:21:09.093Z,39.23
2019-04-07T04:23:42.934Z,37.50
2019-04-07T04:26:13.573Z,38.43
2019-04-07T04:28:44.314Z,35.73
2019-04-07T04:31:18.011Z,36.10
2019-04-07T04:33:51.675Z,36.53
2019-04-07T04:36:24.009Z,36.53
2019-04-07T04:38:56.654Z,41.67
2019-04-07T04:41:27.804Z,39.73
2019-04-07T04:44:02.182Z,40.60
2019-04-07T04:46:34.441Z,41.43
2019-04-07T04:49:06.681Z,39.80
2019-04-07T04:51:39.396Z,40.20
2019-04-07T04:54:10.931Z,33.73
2019-04-07T04:56:41.576Z,39.77
2019-04-07T04:59:12.849Z,36.37
2019-04-07T05:01:45.138Z,36.80
2019-04-07T05:04:16.090Z,37.37
2019-04-07T05:06:47.852Z,39.30
2019-04-07T05:09:19.974Z,37.93
2019-04-07T05:11:52.832Z,37.67
2019-04-07T05:14:23.323Z,38.43
2019-04-07T05:16:54.759Z,37.97
2019-04-07T05:19:27.301Z,40.23
2019-04-07T05:21:58.231Z,46.70
2019-04-07T05:24:28.694Z,41.03
2019-04-07T05:26:59.646Z,46.10
2019-04-07T05:29:30.259Z,46.70
2019-04-07T05:32:02.948Z,42.83
2019-04-07T05:34:33.443Z,42.60
2019-04-07T05:37:04.497Z,46.87
2019-04-07T05:39:36.208Z,42.90
2019-04-07T05:42:08.024Z,43.87
2019-04-07T05:44:39.782Z,43.77
2019-04-07T05:47:12.369Z,46.13
2019-04-07T05:49:44.585Z,48.50
2019-04-07T05:52:16.142Z,46.70
2019-04-07T05:54:49.557Z,43.90
2019-04-07T05:57:19.707Z,42.60
2019-04-07T05:59:50.400Z,40.97
2019-04-07T06:02:22.267Z,40.73
2019-04-07T06:04:53.610Z,41.97
2019-04-07T06:07:28.764Z,42.30
2019-04-07T06:09:56.260Z,41.17
2019-04-07T06:12:27.143Z,42.17
2019-04-07T06:15:00.654Z,43.73
2019-04-07T06:17:34.661Z,42.60
2019-04-07T06:20:12.130Z,40.13
2019-04-07T06:22:40.482Z,46.37
2019-04-07T06:25:13.138Z,41.87
2019-04-07T06:27:45.256Z,41.77
2019-04-07T06:30:17.587Z,43.83
2019-04-07T06:32:48.496Z,43.43
2019-04-07T06:35:20.882Z,39.13
2019-04-07T06:37:53.201Z,41.87
2019-04-07T06:40:26.169Z,40.67
2019-04-07T06:42:58.008Z,36.43
2019-04-07T06:45:39.987Z,39.50
2019-04-07T06:48:11.338Z,40.33
2019-04-07T06:51:04.062Z,40.43
2019-04-07T06:53:59.080Z,39.77
2019-04-07T06:56:41.093Z,40.30
2019-04-07T06:59:29.550Z,37.53
2019-04-07T07:02:17.582Z,43.07
2019-04-07T07:05:05.266Z,38.23
2019-04-07T07:08:04.098Z,35.33
2019-04-07T07:10:53.094Z,38.37
2019-04-07T07:13:34.651Z,37.80
2019-04-07T07:16:24.032Z,35.63
2019-04-07T07:19:02.163Z,36.93
2019-04-07T07:21:46.836Z,35.67
2019-04-07T07:24:22.707Z,35.60
2019-04-07T07:26:49.560Z,35.93
2019-04-07T07:29:21.437Z,33.10
2019-04-07T07:31:58.755Z,35.33
2019-04-07T07:34:31.636Z,30.67
2019-04-07T07:37:04.030Z,31.43
2019-04-07T07:39:36.053Z,33.50
2019-04-07T07:42:11.431Z,31.27
2019-04-07T07:44:42.810Z,29.00
2019-04-07T07:47:14.547Z,30.63
2019-04-07T07:49:48.243Z,30.00
2019-04-07T07:52:21.565Z,29.37
2019-04-07T07:54:51.868Z,31.17
2019-04-07T07:57:25.235Z,31.60
2019-04-07T07:59:57.592Z,33.40
2019-04-07T08:02:31.173Z,33.73
2019-04-07T08:05:03.650Z,32.27
2019-04-07T08:07:35.903Z,31.73
2019-04-07T08:10:09.498Z,32.37
2019-04-07T08:12:42.168Z,31.80
2019-04-07T08:15:14.960Z,30.33
2019-04-07T08:17:47.439Z,31.23
2019-04-07T08:20:19.650Z,30.37
2019-04-07T08:22:51.820Z,28.33
2019-04-07T08:25:24.819Z,30.83
2019-04-07T08:27:58.045Z,30.53
2019-04-07T08:30:29.581Z,30.50
2019-04-07T08:33:02.418Z,29.00
2019-04-07T08:35:38.174Z,28.17
2019-04-07T08:38:11.048Z,28.60
2019-04-07T08:40:42.773Z,28.57
2019-04-07T08:43:14.914Z,28.67
2019-04-07T08:45:46.106Z,32.23
2019-04-07T08:48:19.403Z,30.17
2019-04-07T08:50:51.837Z,26.07
2019-04-07T08:53:24.203Z,28.03
2019-04-07T08:55:57.002Z,27.23
2019-04-07T08:58:36.125Z,26.67
2019-04-07T09:01:03.804Z,26.77
2019-04-07T09:03:35.781Z,26.07
2019-04-07T09:06:07.797Z,26.83
2019-04-07T09:08:39.834Z,26.30
2019-04-07T09:11:14.625Z,25.60
2019-04-07T09:13:55.959Z,26.27
2019-04-07T09:16:56.086Z,24.47
2019-04-07T09:20:08.522Z,26.67
2019-04-07T09:22:42.073Z,24.57
2019-04-07T09:25:33.169Z,24.97
2019-04-07T09:28:21.250Z,24.00
2019-04-07T09:31:17.552Z,24.10
2019-04-07T09:34:09.121Z,23.33
2019-04-07T09:37:11.877Z,24.73
2019-04-07T09:40:05.605Z,24.23
2019-04-07T09:42:43.752Z,20.73
2019-04-07T09:45:33.409Z,17.50
2019-04-07T09:48:25.724Z,20.20
2019-04-07T09:51:11.247Z,19.00
2019-04-07T09:54:00.319Z,18.27
2019-04-07T09:56:53.416Z,17.40
2019-04-07T09:59:41.930Z,16.97
2019-04-07T10:02:34.135Z,15.23
2019-04-07T10:05:21.439Z,15.60
2019-04-07T10:08:07.380Z,14.70
2019-04-07T10:10:58.359Z,14.30
2019-04-07T10:13:39.780Z,15.87
2019-04-07T10:16:32.979Z,14.83
2019-04-07T10:19:39.132Z,14.03
2019-04-07T10:22:34.109Z,15.63
2019-04-07T10:25:26.909Z,14.13
2019-04-07T10:28:12.480Z,13.20
2019-04-07T10:31:00.810Z,16.03
2019-04-07T10:33:49.452Z,13.90
2019-04-07T10:36:45.261Z,14.90
2019-04-07T10:39:21.489Z,13.43
2019-04-07T10:42:11.378Z,13.63
2019-04-07T10:45:00.377Z,13.50
2019-04-07T10:47:50.206Z,14.83
2019-04-07T10:51:01.294Z,15.70
2019-04-07T10:53:42.577Z,14.17
2019-04-07T10:56:24.286Z,15.33
2019-04-07T10:59:17.865Z,13.20
2019-04-07T11:02:01.419Z,13.53
2019-04-07T11:04:51.109Z,13.47
2019-04-07T11:07:40.215Z,14.17
2019-04-07T11:10:30.556Z,14.30
2019-04-07T11:13:29.885Z,16.17
2019-04-07T11:16:14.931Z,13.17
2019-04-07T11:19:20.340Z,15.67
2019-04-07T11:22:11.000Z,14.00
2019-04-07T11:25:07.518Z,13.57
2019-04-07T11:27:52.840Z,14.40
2019-04-07T11:30:45.422Z,13.23
2019-04-07T11:33:39.632Z,12.60
2019-04-07T11:36:24.385Z,13.97
2019-04-07T11:39:20.237Z,11.70
2019-04-07T11:42:21.721Z,11.93
2019-04-07T11:45:19.418Z,12.20
2019-04-07T11:48:08.462Z,12.20
2019-04-07T11:50:43.972Z,12.07
2019-04-07T11:53:21.228Z,13.93
2019-04-07T11:56:08.779Z,12.70
2019-04-07T11:58:45.913Z,11.27
2019-04-07T12:01:46.863Z,10.93
2019-04-07T12:04:34.431Z,12.07
2019-04-07T12:07:21.188Z,11.80
2019-04-07T12:10:09.758Z,11.43
2019-04-07T12:13:06.351Z,12.53
2019-04-07T12:15:56.832Z,12.43
2019-04-07T12:18:50.148Z,11.50
2019-04-07T12:21:32.815Z,11.87
2019-04-07T12:24:14.283Z,12.37
2019-04-07T12:27:12.208Z,13.00
2019-04-07T12:30:02.391Z,13.17
2019-04-07T12:32:41.539Z,11.73
2019-04-07T12:35:37.001Z,69.60
2019-04-07T12:38:22.932Z,9.83
2019-04-07T12:41:15.126Z,10.27
2019-04-07T12:44:04.604Z,11.00
2019-04-07T12:46:48.211Z,10.23
2019-04-07T12:49:29.874Z,10.93
2019-04-07T12:52:31.121Z,11.00
2019-04-07T12:55:19.358Z,81.13
2019-04-07T12:58:13.776Z,10.07
2019-04-07T13:01:12.736Z,9.43
2019-04-07T13:03:54.680Z,10.13
2019-04-07T13:06:45.239Z,11.10
2019-04-07T13:09:29.678Z,10.67
2019-04-07T13:12:22.922Z,9.83
2019-04-07T13:15:15.801Z,10.53
2019-04-07T13:18:07.306Z,20.50
2019-04-07T13:20:54.788Z,31.47
2019-04-07T13:23:43.889Z,10.77
2019-04-07T13:26:40.674Z,12.30
2019-04-07T13:29:39.758Z,10.93
2019-04-07T13:32:40.206Z,12.50
2019-04-07T13:35:40.012Z,11.20
2019-04-07T13:38:35.577Z,13.17
2019-04-07T13:41:23.787Z,11.57
2019-04-07T13:44:18.289Z,10.27
2019-04-07T13:47:22.071Z,12.87
2019-04-07T13:50:11.517Z,11.57
2019-04-07T13:53:08.867Z,9.87
2019-04-07T13:56:09.913Z,10.97
2019-04-07T13:59:01.003Z,11.70
2019-04-07T14:01:55.389Z,12.50
2019-04-07T14:04:45.638Z,10.37
2019-04-07T14:07:35.362Z,10.40
2019-04-07T14:10:21.109Z,11.73
2019-04-07T14:13:11.619Z,10.30
2019-04-07T14:16:01.552Z,10.32
2019-04-07T14:18:54.389Z,10.53
2019-04-07T14:21:49.349Z,11.27
2019-04-07T14:24:44.643Z,10.53
2019-04-07T14:27:32.763Z,12.03
2019-04-07T14:30:22.319Z,14.13
2019-04-07T14:33:11.114Z,9.60
2019-04-07T14:36:16.269Z,10.33
2019-04-07T14:38:56.404Z,10.47
2019-04-07T14:42:00.969Z,10.33
2019-04-07T14:44:55.573Z,11.20
2019-04-07T14:47:47.995Z,11.37
2019-04-07T14:50:33.197Z,10.67
2019-04-07T14:53:28.661Z,11.03
2019-04-07T14:56:27.493Z,12.40
2019-04-07T14:59:08.091Z,12.13
2019-04-07T15:01:53.750Z,10.47
2019-04-07T15:04:30.256Z,10.27
2019-04-07T15:07:36.727Z,9.10
2019-04-07T15:10:15.389Z,9.93
2019-04-07T15:12:56.908Z,10.30
2019-04-07T15:15:27.884Z,10.50
2019-04-07T15:17:58.769Z,14.00
2019-04-07T15:20:31.170Z,10.67
2019-04-07T15:23:02.803Z,11.87
2019-04-07T15:25:34.275Z,12.17
2019-04-07T15:28:06.867Z,10.87
2019-04-07T15:30:39.576Z,10.10
2019-04-07T15:33:11.857Z,15.23
2019-04-07T15:35:45.079Z,13.83
2019-04-07T15:38:15.418Z,11.55
2019-04-07T15:40:47.066Z,12.65
2019-04-07T15:43:17.626Z,11.35
2019-04-07T15:45:50.506Z,11.03
2019-04-07T15:48:27.041Z,11.05
2019-04-07T15:51:02.477Z,11.57
2019-04-07T15:53:34.388Z,11.33
2019-04-07T15:56:07.086Z,10.25
2019-04-07T15:58:39.773Z,11.00
2019-04-07T16:01:11.842Z,10.80
2019-04-07T16:03:45.150Z,10.55
2019-04-07T16:06:16.326Z,10.90
2019-04-07T16:08:47.729Z,10.82
2019-04-07T16:11:19.096Z,10.35
2019-04-07T16:13:50.515Z,10.85
2019-04-07T16:16:22.879Z,10.72
2019-04-07T16:18:54.692Z,10.53
2019-04-07T16:21:27.707Z,10.78
2019-04-07T16:23:59.235Z,10.40
2019-04-07T16:26:31.203Z,12.45
2019-04-07T16:29:05.052Z,12.45
2019-04-07T16:31:36.507Z,12.18
2019-04-07T16:34:09.281Z,14.45
2019-04-07T16:36:41.508Z,13.10
2019-04-07T16:39:13.531Z,14.73
2019-04-07T16:41:45.947Z,15.23
2019-04-07T16:44:17.019Z,13.72
2019-04-07T16:46:48.937Z,17.07
2019-04-07T16:49:20.178Z,14.60
2019-04-07T16:51:51.563Z,14.68
2019-04-07T16:54:23.347Z,14.38
2019-04-07T16:56:57.078Z,15.80
2019-04-07T16:59:27.522Z,16.70
2019-04-07T17:01:59.050Z,15.60
2019-04-07T17:04:31.088Z,15.23
2019-04-07T17:07:05.197Z,15.33
2019-04-07T17:09:36.600Z,15.00
2019-04-07T17:12:10.272Z,15.33
2019-04-07T17:14:41.473Z,17.30
2019-04-07T17:17:19.061Z,15.07
2019-04-07T17:19:51.335Z,20.03
2019-04-07T17:22:23.766Z,14.47
2019-04-07T17:24:54.260Z,15.80
2019-04-07T17:27:25.001Z,16.90
2019-04-07T17:29:56.550Z,15.10
2019-04-07T17:32:27.427Z,18.87
2019-04-07T17:34:58.540Z,15.03
2019-04-07T17:37:29.726Z,13.63
2019-04-07T17:40:14.492Z,17.83
2019-04-07T17:42:50.870Z,15.33
2019-04-07T17:45:43.891Z,16.47
2019-04-07T17:48:38.596Z,15.70
2019-04-07T17:51:27.533Z,15.47
2019-04-07T17:54:20.112Z,16.50
2019-04-07T17:57:01.236Z,14.83
2019-04-07T17:59:38.956Z,15.70
2019-04-07T18:02:32.502Z,14.43
2019-04-07T18:05:41.224Z,14.97
2019-04-07T18:08:19.896Z,17.77
2019-04-07T18:11:15.609Z,15.13
2019-04-07T18:14:22.930Z,15.67
2019-04-07T18:17:18.507Z,16.63
2019-04-07T18:20:08.996Z,15.37
2019-04-07T18:22:53.954Z,15.53
2019-04-07T18:25:36.849Z,16.57
2019-04-07T18:28:28.299Z,16.97
2019-04-07T18:31:22.142Z,16.73
2019-04-07T18:34:26.969Z,16.70
2019-04-07T18:37:18.894Z,16.13
2019-04-07T18:40:09.057Z,16.83
2019-04-07T18:42:57.720Z,17.43
2019-04-07T18:45:45.893Z,18.93
2019-04-07T18:48:33.918Z,18.63
2019-04-07T18:51:18.267Z,17.37
2019-04-07T18:54:08.620Z,15.00
2019-04-07T18:57:10.560Z,16.57
2019-04-07T18:59:55.631Z,16.37
2019-04-07T19:02:39.962Z,16.00
2019-04-07T19:05:42.442Z,17.80
2019-04-07T19:08:33.756Z,15.57
2019-04-07T19:11:26.205Z,14.83
2019-04-07T19:14:21.840Z,15.57
2019-04-07T19:16:49.308Z,13.37
2019-04-07T19:19:36.824Z,16.40
2019-04-07T19:22:24.789Z,14.70
2019-04-07T19:25:24.601Z,15.73
2019-04-07T19:28:11.829Z,16.47
2019-04-07T19:31:08.541Z,15.33
2019-04-07T19:33:58.703Z,15.00
2019-04-07T19:36:46.558Z,13.70
2019-04-07T19:39:34.861Z,14.13
2019-04-07T19:42:23.228Z,17.67
2019-04-07T19:45:11.573Z,14.73
2019-04-07T19:48:09.873Z,15.60
2019-04-07T19:50:54.939Z,16.17
2019-04-07T19:53:43.194Z,14.03
2019-04-07T19:56:23.087Z,14.73
2019-04-07T19:59:19.574Z,12.80
2019-04-07T20:02:01.034Z,13.90
2019-04-07T20:04:53.527Z,14.20
2019-04-07T20:07:56.089Z,13.43
2019-04-07T20:10:51.641Z,15.57
2019-04-07T20:13:43.246Z,16.73
2019-04-07T20:16:36.324Z,16.80
2019-04-07T20:19:27.876Z,15.47
2019-04-07T20:22:16.078Z,14.37
2019-04-07T20:25:18.414Z,13.70
2019-04-07T20:28:09.165Z,14.47
2019-04-07T20:30:57.846Z,13.83
2019-04-07T20:33:51.191Z,13.00
2019-04-07T20:36:44.427Z,14.30
2019-04-07T20:39:37.672Z,13.10
2019-04-07T20:42:32.533Z,13.17
2019-04-07T20:45:26.588Z,13.83
2019-04-07T20:48:09.813Z,16.03
2019-04-07T20:51:00.384Z,15.83
2019-04-07T20:53:49.317Z,14.27
2019-04-07T20:56:34.111Z,14.57
2019-04-07T20:59:41.039Z,15.30
2019-04-07T21:02:25.065Z,14.60
2019-04-07T21:05:12.839Z,15.70
2019-04-07T21:08:23.048Z,15.20
2019-04-07T21:11:04.666Z,14.00
2019-04-07T21:13:50.724Z,13.23
2019-04-07T21:16:31.243Z,14.60
2019-04-07T21:19:21.717Z,16.00
2019-04-07T21:22:15.563Z,14.33
2019-04-07T21:25:08.164Z,13.93
2019-04-07T21:27:54.743Z,15.03
2019-04-07T21:30:48.795Z,15.53
2019-04-07T21:33:46.110Z,13.90
2019-04-07T21:36:38.292Z,14.57
2019-04-07T21:39:42.241Z,18.33
2019-04-07T21:42:27.398Z,17.47
2019-04-07T21:45:32.568Z,15.47
2019-04-07T21:48:13.830Z,15.47
2019-04-07T21:51:04.432Z,15.43
2019-04-07T21:53:45.469Z,17.13
2019-04-07T21:56:32.869Z,16.50
2019-04-07T21:59:29.277Z,16.90
2019-04-07T22:02:26.652Z,23.57
2019-04-07T22:05:24.523Z,17.30
2019-04-07T22:08:17.422Z,21.60
2019-04-07T22:10:50.354Z,16.60
2019-04-07T22:13:21.721Z,18.50
2019-04-07T22:15:58.743Z,18.13
2019-04-07T22:18:28.875Z,17.83
2019-04-07T22:21:01.233Z,18.03
2019-04-07T22:23:33.703Z,18.80
2019-04-07T22:26:09.179Z,19.27
2019-04-07T22:28:41.537Z,18.93
2019-04-07T22:31:16.829Z,19.50
2019-04-07T22:33:48.930Z,17.43
2019-04-07T22:36:20.219Z,17.33
2019-04-07T22:38:56.448Z,18.10
2019-04-07T22:41:26.950Z,18.30
2019-04-07T22:43:57.723Z,18.70
2019-04-07T22:46:29.070Z,17.37
2019-04-07T22:49:00.889Z,19.13
2019-04-07T22:51:31.458Z,16.80
2019-04-07T22:54:01.927Z,22.27
2019-04-07T22:56:32.361Z,19.93
2019-04-07T22:59:06.016Z,19.20
2019-04-07T23:01:38.989Z,19.23
2019-04-07T23:04:09.584Z,19.03
2019-04-07T23:06:42.525Z,21.60
2019-04-07T23:09:13.489Z,18.23
2019-04-07T23:11:46.136Z,18.77
2019-04-07T23:19:42.021Z,20.03
2019-04-07T23:22:13.804Z,18.27
2019-04-07T23:24:45.312Z,18.83
2019-04-07T23:27:15.862Z,19.60
2019-04-07T23:29:46.407Z,19.97
2019-04-07T23:32:17.083Z,22.03
2019-04-07T23:34:47.809Z,20.90
2019-04-07T23:37:18.622Z,20.60
2019-04-07T23:39:49.581Z,21.27
2019-04-07T23:42:20.225Z,19.83
2019-04-07T23:44:50.697Z,19.87
2019-04-07T23:47:21.590Z,19.90
2019-04-07T23:49:52.298Z,18.63
2019-04-07T23:52:25.128Z,19.40
2019-04-07T23:54:55.063Z,20.10
2019-04-07T23:57:25.532Z,20.20
2019-04-07T23:59:56.159Z,19.83
